sensor_id;sensor_type;location;lat;lon;timestamp;pressure;altitude;pressure_sealevel;temperature;humidity
3254;BME280;1639;42.804;23.342;2024-01-10T00:02:19;75980.56;;;-148.52;82.78
3254;BME280;1639;42.804;23.342;2024-01-10T00:04:45;75988.84;;;-148.52;82.60
3254;BME280;1639;42.804;23.342;2024-01-10T00:07:10;75984.72;;;-148.52;82.15
3254;BME280;1639;42.804;23.342;2024-01-10T00:09:35;75984.72;;;-148.52;81.57
3254;BME280;1639;42.804;23.342;2024-01-10T00:12:01;75974.38;;;-148.52;81.26
3254;BME280;1639;42.804;23.342;2024-01-10T00:14:26;76007.47;;;-148.52;81.32
3254;BME280;1639;42.804;23.342;2024-01-10T00:16:52;75986.78;;;-148.52;80.59
3254;BME280;1639;42.804;23.342;2024-01-10T00:19:17;75990.94;;;-148.52;80.02
3254;BME280;1639;42.804;23.342;2024-01-10T00:21:43;75978.50;;;-148.52;79.80
3254;BME280;1639;42.804;23.342;2024-01-10T00:24:08;75982.66;;;-148.52;78.92
3254;BME280;1639;42.804;23.342;2024-01-10T00:26:34;75974.38;;;-148.52;78.68
3254;BME280;1639;42.804;23.342;2024-01-10T00:28:59;75976.44;;;-148.52;77.55
3254;BME280;1639;42.804;23.342;2024-01-10T00:31:24;75972.31;;;-148.52;76.78
3254;BME280;1639;42.804;23.342;2024-01-10T00:33:50;75978.50;;;-148.52;76.14
3254;BME280;1639;42.804;23.342;2024-01-10T00:36:15;75957.81;;;-148.52;76.39
3254;BME280;1639;42.804;23.342;2024-01-10T00:38:41;75961.94;;;-148.52;75.83
3254;BME280;1639;42.804;23.342;2024-01-10T00:41:06;75978.50;;;-148.52;73.65
3254;BME280;1639;42.804;23.342;2024-01-10T00:43:32;75957.81;;;-148.52;73.54
3254;BME280;1639;42.804;23.342;2024-01-10T00:45:57;75959.88;;;-148.52;73.85
3254;BME280;1639;42.804;23.342;2024-01-10T00:48:23;75951.59;;;-148.52;73.72
3254;BME280;1639;42.804;23.342;2024-01-10T00:50:48;75941.25;;;-148.52;72.54
3254;BME280;1639;42.804;23.342;2024-01-10T00:53:13;75955.75;;;-148.52;71.64
3254;BME280;1639;42.804;23.342;2024-01-10T00:55:39;75961.94;;;-148.52;70.75
3254;BME280;1639;42.804;23.342;2024-01-10T00:58:04;75953.66;;;-148.52;71.23
3254;BME280;1639;42.804;23.342;2024-01-10T01:00:30;75970.22;;;-148.52;70.94
3254;BME280;1639;42.804;23.342;2024-01-10T01:02:55;75955.75;;;-148.52;70.65
3254;BME280;1639;42.804;23.342;2024-01-10T01:05:20;75949.53;;;-148.52;70.75
3254;BME280;1639;42.804;23.342;2024-01-10T01:07:46;75972.31;;;-148.52;70.40
3254;BME280;1639;42.804;23.342;2024-01-10T01:10:11;75968.16;;;-148.52;71.13
3254;BME280;1639;42.804;23.342;2024-01-10T01:12:37;75955.75;;;-148.52;71.01
3254;BME280;1639;42.804;23.342;2024-01-10T01:15:03;75943.31;;;-148.52;71.25
3254;BME280;1639;42.804;23.342;2024-01-10T01:17:29;75941.25;;;-148.52;70.62
3254;BME280;1639;42.804;23.342;2024-01-10T01:19:54;75947.47;;;-148.52;70.19
3254;BME280;1639;42.804;23.342;2024-01-10T01:22:19;75939.19;;;-148.52;70.04
3254;BME280;1639;42.804;23.342;2024-01-10T01:24:45;75959.88;;;-148.52;69.27
3254;BME280;1639;42.804;23.342;2024-01-10T01:27:10;75966.09;;;-148.52;69.71
3254;BME280;1639;42.804;23.342;2024-01-10T01:29:36;75966.09;;;-148.52;69.80
3254;BME280;1639;42.804;23.342;2024-01-10T01:32:01;75964.03;;;-148.52;69.52
3254;BME280;1639;42.804;23.342;2024-01-10T01:34:26;75972.31;;;-148.52;69.54
3254;BME280;1639;42.804;23.342;2024-01-10T01:36:52;75978.50;;;-148.52;69.11
3254;BME280;1639;42.804;23.342;2024-01-10T01:39:20;75988.84;;;-148.52;68.24
3254;BME280;1639;42.804;23.342;2024-01-10T01:41:46;75995.06;;;-148.52;68.90
3254;BME280;1639;42.804;23.342;2024-01-10T01:44:11;75978.50;;;-148.52;68.79
3254;BME280;1639;42.804;23.342;2024-01-10T01:46:37;75970.22;;;-148.52;69.06
3254;BME280;1639;42.804;23.342;2024-01-10T01:49:03;75988.84;;;-148.52;68.23
3254;BME280;1639;42.804;23.342;2024-01-10T01:51:30;75986.78;;;-148.52;68.68
3254;BME280;1639;42.804;23.342;2024-01-10T01:53:57;75974.38;;;-148.52;68.29
3254;BME280;1639;42.804;23.342;2024-01-10T01:56:23;75982.66;;;-148.52;68.04
3254;BME280;1639;42.804;23.342;2024-01-10T01:58:50;75976.44;;;-148.52;68.17
3254;BME280;1639;42.804;23.342;2024-01-10T02:01:17;75972.31;;;-148.52;68.13
3254;BME280;1639;42.804;23.342;2024-01-10T02:03:47;75988.84;;;-148.52;67.02
3254;BME280;1639;42.804;23.342;2024-01-10T02:06:12;75980.56;;;-148.52;67.17
3254;BME280;1639;42.804;23.342;2024-01-10T02:08:37;75988.84;;;-148.52;67.17
3254;BME280;1639;42.804;23.342;2024-01-10T02:11:03;75978.50;;;-148.52;66.74
3254;BME280;1639;42.804;23.342;2024-01-10T02:13:31;76001.28;;;-148.52;67.13
3254;BME280;1639;42.804;23.342;2024-01-10T02:15:58;75995.06;;;-148.52;66.08
3254;BME280;1639;42.804;23.342;2024-01-10T02:18:23;75984.72;;;-148.52;66.50
3254;BME280;1639;42.804;23.342;2024-01-10T02:20:49;75982.66;;;-148.52;66.63
3254;BME280;1639;42.804;23.342;2024-01-10T02:23:15;75997.13;;;-148.52;66.04
3254;BME280;1639;42.804;23.342;2024-01-10T02:25:40;75995.06;;;-148.52;66.23
3254;BME280;1639;42.804;23.342;2024-01-10T02:28:06;76001.28;;;-148.52;66.77
3254;BME280;1639;42.804;23.342;2024-01-10T02:30:32;76003.34;;;-148.52;65.77
3254;BME280;1639;42.804;23.342;2024-01-10T02:32:58;76019.91;;;-148.52;65.63
3254;BME280;1639;42.804;23.342;2024-01-10T02:35:23;76013.69;;;-148.52;66.48
3254;BME280;1639;42.804;23.342;2024-01-10T02:37:49;76017.84;;;-148.52;65.79
3254;BME280;1639;42.804;23.342;2024-01-10T02:40:16;76015.75;;;-148.52;64.77
3254;BME280;1639;42.804;23.342;2024-01-10T02:42:42;76013.69;;;-148.52;65.82
3254;BME280;1639;42.804;23.342;2024-01-10T02:45:07;76009.56;;;-148.52;66.38
3254;BME280;1639;42.804;23.342;2024-01-10T02:47:33;76013.69;;;-148.52;65.36
3254;BME280;1639;42.804;23.342;2024-01-10T02:49:58;76015.75;;;-148.52;65.45
3254;BME280;1639;42.804;23.342;2024-01-10T02:52:24;76013.69;;;-148.52;65.15
3254;BME280;1639;42.804;23.342;2024-01-10T02:54:49;76015.75;;;-148.52;64.74
3254;BME280;1639;42.804;23.342;2024-01-10T02:57:14;76021.97;;;-148.52;65.40
3254;BME280;1639;42.804;23.342;2024-01-10T02:59:40;76011.63;;;-148.52;65.00
3254;BME280;1639;42.804;23.342;2024-01-10T03:02:05;76026.13;;;-148.52;65.28
3254;BME280;1639;42.804;23.342;2024-01-10T03:04:31;76021.97;;;-148.52;64.87
3254;BME280;1639;42.804;23.342;2024-01-10T03:06:56;75993.00;;;-148.52;64.36
3254;BME280;1639;42.804;23.342;2024-01-10T03:09:22;75976.44;;;-148.52;64.81
3254;BME280;1639;42.804;23.342;2024-01-10T03:11:48;75982.66;;;-148.52;65.49
3254;BME280;1639;42.804;23.342;2024-01-10T03:14:13;75968.16;;;-148.52;64.28
3254;BME280;1639;42.804;23.342;2024-01-10T03:16:39;75961.94;;;-148.52;64.22
3254;BME280;1639;42.804;23.342;2024-01-10T03:19:04;75976.44;;;-148.52;63.92
3254;BME280;1639;42.804;23.342;2024-01-10T03:21:30;75976.44;;;-148.52;63.71
3254;BME280;1639;42.804;23.342;2024-01-10T03:23:56;75966.09;;;-148.52;64.64
3254;BME280;1639;42.804;23.342;2024-01-10T03:26:22;75984.72;;;-148.52;64.81
3254;BME280;1639;42.804;23.342;2024-01-10T03:28:48;75986.78;;;-148.52;64.23
3254;BME280;1639;42.804;23.342;2024-01-10T03:31:14;75980.56;;;-148.52;63.18
3254;BME280;1639;42.804;23.342;2024-01-10T03:33:39;75961.94;;;-148.52;63.80
3254;BME280;1639;42.804;23.342;2024-01-10T03:36:06;75970.22;;;-148.52;63.89
3254;BME280;1639;42.804;23.342;2024-01-10T03:38:32;75945.41;;;-148.52;64.47
3254;BME280;1639;42.804;23.342;2024-01-10T03:40:57;75951.59;;;-148.52;65.18
3254;BME280;1639;42.804;23.342;2024-01-10T03:43:22;75941.25;;;-148.52;64.10
3254;BME280;1639;42.804;23.342;2024-01-10T03:45:48;75935.03;;;-148.52;64.02
3254;BME280;1639;42.804;23.342;2024-01-10T03:48:13;75918.50;;;-148.52;63.53
3254;BME280;1639;42.804;23.342;2024-01-10T03:50:38;75910.22;;;-148.52;64.45
3254;BME280;1639;42.804;23.342;2024-01-10T03:53:04;75904.00;;;-148.52;63.26
3254;BME280;1639;42.804;23.342;2024-01-10T03:55:29;75897.78;;;-148.52;63.25
3254;BME280;1639;42.804;23.342;2024-01-10T03:57:56;75901.94;;;-148.52;58.52
3254;BME280;1639;42.804;23.342;2024-01-10T04:00:21;75914.34;;;-148.52;58.25
3254;BME280;1639;42.804;23.342;2024-01-10T04:02:47;75899.84;;;-148.52;57.62
3254;BME280;1639;42.804;23.342;2024-01-10T04:05:12;75920.56;;;-148.52;57.95
3254;BME280;1639;42.804;23.342;2024-01-10T04:07:41;75926.75;;;-148.52;57.74
3254;BME280;1639;42.804;23.342;2024-01-10T04:10:09;75947.47;;;-148.52;59.36
3254;BME280;1639;42.804;23.342;2024-01-10T04:12:36;75932.97;;;-148.52;58.05
3254;BME280;1639;42.804;23.342;2024-01-10T04:15:03;75926.75;;;-148.52;57.06
3254;BME280;1639;42.804;23.342;2024-01-10T04:17:29;75926.75;;;-148.52;58.03
3254;BME280;1639;42.804;23.342;2024-01-10T04:19:54;75947.47;;;-148.52;56.39
3254;BME280;1639;42.804;23.342;2024-01-10T04:22:20;75947.47;;;-148.52;57.73
3254;BME280;1639;42.804;23.342;2024-01-10T04:24:45;75947.47;;;-148.52;57.16
3254;BME280;1639;42.804;23.342;2024-01-10T04:27:10;75941.25;;;-148.52;57.80
3254;BME280;1639;42.804;23.342;2024-01-10T04:29:36;75968.16;;;-148.52;56.88
3254;BME280;1639;42.804;23.342;2024-01-10T04:32:01;75953.66;;;-148.52;55.34
3254;BME280;1639;42.804;23.342;2024-01-10T04:34:26;75993.00;;;-148.52;55.59
3254;BME280;1639;42.804;23.342;2024-01-10T04:36:52;75961.94;;;-148.52;56.75
3254;BME280;1639;42.804;23.342;2024-01-10T04:39:17;75995.06;;;-148.52;56.01
3254;BME280;1639;42.804;23.342;2024-01-10T04:41:43;76001.28;;;-148.52;57.03
3254;BME280;1639;42.804;23.342;2024-01-10T04:44:09;76001.28;;;-148.52;56.60
3254;BME280;1639;42.804;23.342;2024-01-10T04:46:34;76013.69;;;-148.52;56.88
3254;BME280;1639;42.804;23.342;2024-01-10T04:48:59;75997.13;;;-148.52;56.80
3254;BME280;1639;42.804;23.342;2024-01-10T04:51:25;76024.03;;;-148.52;56.43
3254;BME280;1639;42.804;23.342;2024-01-10T04:53:50;76042.66;;;-148.52;56.81
3254;BME280;1639;42.804;23.342;2024-01-10T04:56:16;76065.44;;;-148.52;56.52
3254;BME280;1639;42.804;23.342;2024-01-10T04:58:41;76042.66;;;-148.52;56.24
3254;BME280;1639;42.804;23.342;2024-01-10T05:01:06;76055.09;;;-148.52;56.66
3254;BME280;1639;42.804;23.342;2024-01-10T05:03:32;76053.03;;;-148.52;56.45
3254;BME280;1639;42.804;23.342;2024-01-10T05:05:57;76069.56;;;-148.52;56.63
3254;BME280;1639;42.804;23.342;2024-01-10T05:08:22;76059.22;;;-148.52;56.54
3254;BME280;1639;42.804;23.342;2024-01-10T05:10:48;76050.94;;;-148.52;56.48
3254;BME280;1639;42.804;23.342;2024-01-10T05:13:13;76050.94;;;-148.52;56.68
3254;BME280;1639;42.804;23.342;2024-01-10T05:15:39;76067.50;;;-148.52;56.12
3254;BME280;1639;42.804;23.342;2024-01-10T05:18:05;76059.22;;;-148.52;56.60
3254;BME280;1639;42.804;23.342;2024-01-10T05:20:30;76065.44;;;-148.52;56.60
3254;BME280;1639;42.804;23.342;2024-01-10T05:22:57;76069.56;;;-148.52;56.20
3254;BME280;1639;42.804;23.342;2024-01-10T05:25:24;76079.94;;;-148.52;56.79
3254;BME280;1639;42.804;23.342;2024-01-10T05:27:50;76079.94;;;-148.52;56.66
3254;BME280;1639;42.804;23.342;2024-01-10T05:30:15;76075.78;;;-148.52;56.96
3254;BME280;1639;42.804;23.342;2024-01-10T05:32:41;76094.41;;;-148.52;56.41
3254;BME280;1639;42.804;23.342;2024-01-10T05:35:07;76088.22;;;-148.52;56.44
3254;BME280;1639;42.804;23.342;2024-01-10T05:37:33;76077.84;;;-148.52;57.13
3254;BME280;1639;42.804;23.342;2024-01-10T05:39:58;76094.41;;;-148.52;56.17
3254;BME280;1639;42.804;23.342;2024-01-10T05:42:23;76123.41;;;-148.52;57.35
3254;BME280;1639;42.804;23.342;2024-01-10T05:44:50;76119.25;;;-148.52;57.08
3254;BME280;1639;42.804;23.342;2024-01-10T05:47:15;76110.97;;;-148.52;57.17
3254;BME280;1639;42.804;23.342;2024-01-10T05:49:40;76121.31;;;-148.52;56.83
3254;BME280;1639;42.804;23.342;2024-01-10T05:52:07;76125.47;;;-148.52;57.36
3254;BME280;1639;42.804;23.342;2024-01-10T05:54:33;76110.97;;;-148.52;57.81
3254;BME280;1639;42.804;23.342;2024-01-10T05:56:58;76129.59;;;-148.52;57.57
3254;BME280;1639;42.804;23.342;2024-01-10T05:59:26;76129.59;;;-148.52;57.23
3254;BME280;1639;42.804;23.342;2024-01-10T06:01:51;76162.72;;;-148.52;57.91
3254;BME280;1639;42.804;23.342;2024-01-10T06:04:17;76158.59;;;-148.52;58.16
3254;BME280;1639;42.804;23.342;2024-01-10T06:06:42;76158.59;;;-148.52;58.22
3254;BME280;1639;42.804;23.342;2024-01-10T06:09:08;76154.44;;;-148.52;58.02
3254;BME280;1639;42.804;23.342;2024-01-10T06:11:40;76131.69;;;-148.52;57.36
3254;BME280;1639;42.804;23.342;2024-01-10T06:14:07;76129.59;;;-148.52;57.76
3254;BME280;1639;42.804;23.342;2024-01-10T06:16:32;76121.31;;;-148.52;57.13
3254;BME280;1639;42.804;23.342;2024-01-10T06:18:57;76119.25;;;-148.52;56.84
3254;BME280;1639;42.804;23.342;2024-01-10T06:21:23;76121.31;;;-148.52;56.62
3254;BME280;1639;42.804;23.342;2024-01-10T06:23:48;76121.31;;;-148.52;56.71
3254;BME280;1639;42.804;23.342;2024-01-10T06:26:14;76139.94;;;-148.52;57.55
3254;BME280;1639;42.804;23.342;2024-01-10T06:28:39;76135.81;;;-148.52;57.28
3254;BME280;1639;42.804;23.342;2024-01-10T06:31:05;76131.69;;;-148.52;56.58
3254;BME280;1639;42.804;23.342;2024-01-10T06:33:30;76125.47;;;-148.52;56.86
3254;BME280;1639;42.804;23.342;2024-01-10T06:35:55;76133.75;;;-148.52;56.45
3254;BME280;1639;42.804;23.342;2024-01-10T06:38:22;76125.47;;;-148.52;55.80
3254;BME280;1639;42.804;23.342;2024-01-10T06:40:48;76125.47;;;-148.52;55.99
3254;BME280;1639;42.804;23.342;2024-01-10T06:43:14;76119.25;;;-148.52;57.25
3254;BME280;1639;42.804;23.342;2024-01-10T06:45:39;76100.63;;;-148.52;56.98
3254;BME280;1639;42.804;23.342;2024-01-10T06:48:06;76127.53;;;-148.52;57.43
3254;BME280;1639;42.804;23.342;2024-01-10T06:50:31;76123.41;;;-148.52;58.01
3254;BME280;1639;42.804;23.342;2024-01-10T06:52:57;76133.75;;;-148.52;57.72
3254;BME280;1639;42.804;23.342;2024-01-10T06:55:22;76121.31;;;-148.52;57.46
3254;BME280;1639;42.804;23.342;2024-01-10T06:57:49;76129.59;;;-148.52;57.70
3254;BME280;1639;42.804;23.342;2024-01-10T07:00:21;76121.31;;;-148.52;57.87
3254;BME280;1639;42.804;23.342;2024-01-10T07:02:47;76100.63;;;-148.52;57.40
3254;BME280;1639;42.804;23.342;2024-01-10T07:05:14;76096.47;;;-148.52;56.98
3254;BME280;1639;42.804;23.342;2024-01-10T07:07:39;76100.63;;;-148.52;56.72
3254;BME280;1639;42.804;23.342;2024-01-10T07:10:05;76121.31;;;-148.52;57.29
3254;BME280;1639;42.804;23.342;2024-01-10T07:12:32;76121.31;;;-148.52;57.72
3254;BME280;1639;42.804;23.342;2024-01-10T07:14:58;76113.03;;;-148.52;57.19
3254;BME280;1639;42.804;23.342;2024-01-10T07:17:23;76094.41;;;-148.52;57.34
3254;BME280;1639;42.804;23.342;2024-01-10T07:19:49;76077.84;;;-148.52;56.54
3254;BME280;1639;42.804;23.342;2024-01-10T07:22:15;76067.50;;;-148.52;56.52
3254;BME280;1639;42.804;23.342;2024-01-10T07:24:40;76063.38;;;-148.52;56.79
3254;BME280;1639;42.804;23.342;2024-01-10T07:27:05;76059.22;;;-148.52;56.69
3254;BME280;1639;42.804;23.342;2024-01-10T07:29:32;76057.16;;;-148.52;56.25
3254;BME280;1639;42.804;23.342;2024-01-10T07:31:57;76042.66;;;-148.52;56.00
3254;BME280;1639;42.804;23.342;2024-01-10T07:34:23;76036.47;;;-148.52;55.34
3254;BME280;1639;42.804;23.342;2024-01-10T07:36:48;76026.13;;;-148.52;54.58
3254;BME280;1639;42.804;23.342;2024-01-10T07:39:14;75997.13;;;-148.52;55.44
3254;BME280;1639;42.804;23.342;2024-01-10T07:41:46;75972.31;;;-148.52;53.50
3254;BME280;1639;42.804;23.342;2024-01-10T07:44:11;75951.59;;;-148.52;53.30
3254;BME280;1639;42.804;23.342;2024-01-10T07:46:37;75941.25;;;-148.52;52.63
3254;BME280;1639;42.804;23.342;2024-01-10T07:49:06;75897.78;;;-148.52;52.30
3254;BME280;1639;42.804;23.342;2024-01-10T07:51:31;75893.66;;;-148.52;52.20
3254;BME280;1639;42.804;23.342;2024-01-10T07:53:57;75885.38;;;-148.52;52.02
3254;BME280;1639;42.804;23.342;2024-01-10T07:56:24;75852.25;;;-148.52;51.37
3254;BME280;1639;42.804;23.342;2024-01-10T07:58:49;75829.50;;;-148.52;50.53
3254;BME280;1639;42.804;23.342;2024-01-10T08:01:17;75790.16;;;-148.52;50.58
3254;BME280;1639;42.804;23.342;2024-01-10T08:03:42;75759.13;;;-148.52;50.22
3254;BME280;1639;42.804;23.342;2024-01-10T08:06:07;75742.56;;;-148.52;51.04
3254;BME280;1639;42.804;23.342;2024-01-10T08:08:33;75705.31;;;-148.52;50.75
3254;BME280;1639;42.804;23.342;2024-01-10T08:10:58;75682.53;;;-148.52;49.93
3254;BME280;1639;42.804;23.342;2024-01-10T08:13:24;75641.16;;;-148.52;49.65
3254;BME280;1639;42.804;23.342;2024-01-10T08:15:49;75597.69;;;-148.52;49.09
3254;BME280;1639;42.804;23.342;2024-01-10T08:18:15;75591.47;;;-148.52;48.04
3254;BME280;1639;42.804;23.342;2024-01-10T08:20:40;75603.91;;;-148.52;49.15
3254;BME280;1639;42.804;23.342;2024-01-10T08:23:05;75624.59;;;-148.52;48.83
3254;BME280;1639;42.804;23.342;2024-01-10T08:25:31;75614.25;;;-148.52;48.79
3254;BME280;1639;42.804;23.342;2024-01-10T08:27:56;75599.75;;;-148.52;48.57
3254;BME280;1639;42.804;23.342;2024-01-10T08:30:23;75603.91;;;-148.52;49.21
3254;BME280;1639;42.804;23.342;2024-01-10T08:32:49;75595.63;;;-148.52;48.33
3254;BME280;1639;42.804;23.342;2024-01-10T08:35:14;75587.34;;;-148.52;49.18
3254;BME280;1639;42.804;23.342;2024-01-10T08:37:40;75572.84;;;-148.52;48.62
3254;BME280;1639;42.804;23.342;2024-01-10T08:40:10;75589.41;;;-148.52;49.53
3254;BME280;1639;42.804;23.342;2024-01-10T08:42:37;75570.78;;;-148.52;49.29
3254;BME280;1639;42.804;23.342;2024-01-10T08:45:03;75581.13;;;-148.52;48.48
3254;BME280;1639;42.804;23.342;2024-01-10T08:47:29;75568.72;;;-148.52;48.36
3254;BME280;1639;42.804;23.342;2024-01-10T08:49:58;75570.78;;;-148.52;47.05
3254;BME280;1639;42.804;23.342;2024-01-10T08:52:23;75585.28;;;-148.52;48.10
3254;BME280;1639;42.804;23.342;2024-01-10T08:54:48;75612.19;;;-148.52;48.35
3254;BME280;1639;42.804;23.342;2024-01-10T08:57:14;75616.31;;;-148.52;48.76
3254;BME280;1639;42.804;23.342;2024-01-10T08:59:41;75624.59;;;-148.52;48.44
3254;BME280;1639;42.804;23.342;2024-01-10T09:02:07;75628.72;;;-148.52;48.78
3254;BME280;1639;42.804;23.342;2024-01-10T09:04:33;75622.53;;;-148.52;48.88
3254;BME280;1639;42.804;23.342;2024-01-10T09:06:58;75639.09;;;-148.52;48.99
3254;BME280;1639;42.804;23.342;2024-01-10T09:09:23;75649.44;;;-148.52;50.39
3254;BME280;1639;42.804;23.342;2024-01-10T09:11:49;75653.56;;;-148.52;48.88
3254;BME280;1639;42.804;23.342;2024-01-10T09:14:14;75657.72;;;-148.52;49.14
3254;BME280;1639;42.804;23.342;2024-01-10T09:16:40;75659.78;;;-148.52;48.65
3254;BME280;1639;42.804;23.342;2024-01-10T09:19:05;75655.63;;;-148.52;48.75
3254;BME280;1639;42.804;23.342;2024-01-10T09:21:30;75653.56;;;-148.52;49.00
3254;BME280;1639;42.804;23.342;2024-01-10T09:23:56;75655.63;;;-148.52;49.16
3254;BME280;1639;42.804;23.342;2024-01-10T09:26:22;75641.16;;;-148.52;48.97
3254;BME280;1639;42.804;23.342;2024-01-10T09:28:48;75634.94;;;-148.52;49.12
3254;BME280;1639;42.804;23.342;2024-01-10T09:31:13;75630.81;;;-148.52;47.32
3254;BME280;1639;42.804;23.342;2024-01-10T09:33:39;75632.88;;;-148.52;46.41
3254;BME280;1639;42.804;23.342;2024-01-10T09:36:05;75637.00;;;-148.52;47.26
3254;BME280;1639;42.804;23.342;2024-01-10T09:38:37;75639.09;;;-148.52;49.01
3254;BME280;1639;42.804;23.342;2024-01-10T09:41:04;75632.88;;;-148.52;50.05
3254;BME280;1639;42.804;23.342;2024-01-10T09:43:30;75632.88;;;-148.52;49.96
3254;BME280;1639;42.804;23.342;2024-01-10T09:45:58;75630.81;;;-148.52;48.97
3254;BME280;1639;42.804;23.342;2024-01-10T09:48:27;75628.72;;;-148.52;49.29
3254;BME280;1639;42.804;23.342;2024-01-10T09:50:53;75624.59;;;-148.52;49.24
3254;BME280;1639;42.804;23.342;2024-01-10T09:53:22;75597.69;;;-148.52;49.38
3254;BME280;1639;42.804;23.342;2024-01-10T09:55:57;75595.63;;;-148.52;51.52
3254;BME280;1639;42.804;23.342;2024-01-10T09:58:26;75597.69;;;-148.52;49.08
3254;BME280;1639;42.804;23.342;2024-01-10T10:00:51;75601.84;;;-148.52;50.09
3254;BME280;1639;42.804;23.342;2024-01-10T10:03:19;75608.03;;;-148.52;49.06
3254;BME280;1639;42.804;23.342;2024-01-10T10:05:44;75603.91;;;-148.52;49.65
3254;BME280;1639;42.804;23.342;2024-01-10T10:08:11;75599.75;;;-148.52;48.26
3254;BME280;1639;42.804;23.342;2024-01-10T10:10:37;75597.69;;;-148.52;49.07
3254;BME280;1639;42.804;23.342;2024-01-10T10:13:08;75603.91;;;-148.52;48.38
3254;BME280;1639;42.804;23.342;2024-01-10T10:15:36;75595.63;;;-148.52;48.33
3254;BME280;1639;42.804;23.342;2024-01-10T10:18:02;75595.63;;;-148.52;48.18
3254;BME280;1639;42.804;23.342;2024-01-10T10:20:28;75583.22;;;-148.52;48.11
3254;BME280;1639;42.804;23.342;2024-01-10T10:23:05;75574.94;;;-148.52;47.54
3254;BME280;1639;42.804;23.342;2024-01-10T10:25:45;75570.78;;;-148.52;48.35
3254;BME280;1639;42.804;23.342;2024-01-10T10:28:10;75566.66;;;-148.52;49.20
3254;BME280;1639;42.804;23.342;2024-01-10T10:30:36;75550.09;;;-148.52;47.97
3254;BME280;1639;42.804;23.342;2024-01-10T10:33:02;75548.03;;;-148.52;49.17
3254;BME280;1639;42.804;23.342;2024-01-10T10:35:28;75535.59;;;-148.52;47.68
3254;BME280;1639;42.804;23.342;2024-01-10T10:37:54;75537.69;;;-148.52;48.23
3254;BME280;1639;42.804;23.342;2024-01-10T10:40:20;75533.53;;;-148.52;48.59
3254;BME280;1639;42.804;23.342;2024-01-10T10:42:48;75533.53;;;-148.52;49.09
3254;BME280;1639;42.804;23.342;2024-01-10T10:45:15;75539.75;;;-148.52;48.45
3254;BME280;1639;42.804;23.342;2024-01-10T10:47:44;75531.47;;;-148.52;48.42
3254;BME280;1639;42.804;23.342;2024-01-10T10:50:20;75545.94;;;-148.52;49.12
3254;BME280;1639;42.804;23.342;2024-01-10T10:52:46;75550.09;;;-148.52;49.04
3254;BME280;1639;42.804;23.342;2024-01-10T10:55:17;75566.66;;;-148.52;48.93
3254;BME280;1639;42.804;23.342;2024-01-10T10:57:47;75539.75;;;-148.52;50.06
3254;BME280;1639;42.804;23.342;2024-01-10T11:00:14;75516.97;;;-148.52;50.63
3254;BME280;1639;42.804;23.342;2024-01-10T11:02:43;75506.63;;;-148.52;48.64
3254;BME280;1639;42.804;23.342;2024-01-10T11:05:09;75494.22;;;-148.52;49.14
3254;BME280;1639;42.804;23.342;2024-01-10T11:07:39;75471.44;;;-148.52;50.43
3254;BME280;1639;42.804;23.342;2024-01-10T11:10:10;75496.28;;;-148.52;50.53
3254;BME280;1639;42.804;23.342;2024-01-10T11:21:34;75485.94;;;-148.52;50.38
3254;BME280;1639;42.804;23.342;2024-01-10T11:24:05;75496.28;;;-148.52;50.69
3254;BME280;1639;42.804;23.342;2024-01-10T11:26:32;75475.59;;;-148.52;51.50
3254;BME280;1639;42.804;23.342;2024-01-10T11:28:58;75483.88;;;-148.52;51.73
3254;BME280;1639;42.804;23.342;2024-01-10T11:31:29;75467.31;;;-148.52;51.49
3254;BME280;1639;42.804;23.342;2024-01-10T11:34:02;75463.16;;;-148.52;51.60
3254;BME280;1639;42.804;23.342;2024-01-10T11:36:28;75459.03;;;-148.52;52.63
3254;BME280;1639;42.804;23.342;2024-01-10T11:38:58;75436.28;;;-148.52;51.41
3254;BME280;1639;42.804;23.342;2024-01-10T11:41:35;75430.06;;;-148.52;52.03
3254;BME280;1639;42.804;23.342;2024-01-10T11:46:38;75430.06;;;-148.52;53.25
3254;BME280;1639;42.804;23.342;2024-01-10T11:49:04;75425.91;;;-148.52;54.43
3254;BME280;1639;42.804;23.342;2024-01-10T11:51:32;75396.94;;;-148.52;54.08
3254;BME280;1639;42.804;23.342;2024-01-10T11:53:57;75407.28;;;-148.52;52.87
3254;BME280;1639;42.804;23.342;2024-01-10T11:56:23;75411.44;;;-148.52;53.09
3254;BME280;1639;42.804;23.342;2024-01-10T11:59:06;75419.72;;;-148.52;52.62
3254;BME280;1639;42.804;23.342;2024-01-10T12:01:37;75399.03;;;-148.52;53.01
3254;BME280;1639;42.804;23.342;2024-01-10T12:04:04;75384.53;;;-148.52;53.57
3254;BME280;1639;42.804;23.342;2024-01-10T12:06:32;75390.75;;;-148.52;52.68
3254;BME280;1639;42.804;23.342;2024-01-10T12:08:59;75384.53;;;-148.52;53.12
3254;BME280;1639;42.804;23.342;2024-01-10T12:11:25;75386.59;;;-148.52;53.75
3254;BME280;1639;42.804;23.342;2024-01-10T12:13:50;75392.81;;;-148.52;55.31
3254;BME280;1639;42.804;23.342;2024-01-10T12:16:16;75376.25;;;-148.52;53.89
3254;BME280;1639;42.804;23.342;2024-01-10T12:18:43;75367.97;;;-148.52;54.58
3254;BME280;1639;42.804;23.342;2024-01-10T12:21:08;75349.34;;;-148.52;53.69
3254;BME280;1639;42.804;23.342;2024-01-10T12:23:35;75347.28;;;-148.52;53.23
3254;BME280;1639;42.804;23.342;2024-01-10T12:26:06;75316.25;;;-148.52;52.53
3254;BME280;1639;42.804;23.342;2024-01-10T12:28:33;75293.47;;;-148.52;53.35
3254;BME280;1639;42.804;23.342;2024-01-10T12:30:59;75287.28;;;-148.52;52.53
3254;BME280;1639;42.804;23.342;2024-01-10T12:33:25;75281.06;;;-148.52;52.38
3254;BME280;1639;42.804;23.342;2024-01-10T12:36:22;75289.34;;;-148.52;51.91
3254;BME280;1639;42.804;23.342;2024-01-10T12:38:48;75301.75;;;-148.52;52.32
3254;BME280;1639;42.804;23.342;2024-01-10T12:41:15;75314.16;;;-148.52;52.57
3254;BME280;1639;42.804;23.342;2024-01-10T12:43:42;75303.81;;;-148.52;52.71
3254;BME280;1639;42.804;23.342;2024-01-10T12:46:11;75305.91;;;-148.52;53.08
3254;BME280;1639;42.804;23.342;2024-01-10T12:48:40;75312.09;;;-148.52;52.91
3254;BME280;1639;42.804;23.342;2024-01-10T12:51:13;75318.31;;;-148.52;53.90
3254;BME280;1639;42.804;23.342;2024-01-10T12:53:42;75322.44;;;-148.52;53.47
3254;BME280;1639;42.804;23.342;2024-01-10T12:56:10;75322.44;;;-148.52;53.65
3254;BME280;1639;42.804;23.342;2024-01-10T12:58:39;75332.78;;;-148.52;53.65